sensor_id;sensor_type;location;lat;lon;timestamp;temperature;humidity
11965;DHT22;6042;41.326;19.826;2024-03-07T00:00:13;8.20;99.90
11965;DHT22;6042;41.326;19.826;2024-03-07T00:02:47;8.20;99.90
11965;DHT22;6042;41.326;19.826;2024-03-07T00:05:17;8.00;99.90
11965;DHT22;6042;41.326;19.826;2024-03-07T00:07:46;8.20;99.90
11965;DHT22;6042;41.326;19.826;2024-03-07T00:10:16;8.20;99.90
11965;DHT22;6042;41.326;19.826;2024-03-07T00:12:45;8.10;99.90
11965;DHT22;6042;41.326;19.826;2024-03-07T00:15:15;8.30;99.90
11965;DHT22;6042;41.326;19.826;2024-03-07T00:17:45;8.30;99.90
11965;DHT22;6042;41.326;19.826;2024-03-07T00:20:15;8.10;99.90
11965;DHT22;6042;41.326;19.826;2024-03-07T00:22:48;8.20;99.90
11965;DHT22;6042;41.326;19.826;2024-03-07T00:25:19;8.20;99.90
11965;DHT22;6042;41.326;19.826;2024-03-07T00:27:50;8.10;99.90
11965;DHT22;6042;41.326;19.826;2024-03-07T00:30:20;8.20;99.90
11965;DHT22;6042;41.326;19.826;2024-03-07T00:32:48;8.10;99.90
11965;DHT22;6042;41.326;19.826;2024-03-07T00:35:17;8.10;99.90
11965;DHT22;6042;41.326;19.826;2024-03-07T00:37:48;8.20;99.90
11965;DHT22;6042;41.326;19.826;2024-03-07T00:40:19;8.20;99.90
11965;DHT22;6042;41.326;19.826;2024-03-07T00:42:48;8.20;99.90
11965;DHT22;6042;41.326;19.826;2024-03-07T00:45:18;8.30;99.90
11965;DHT22;6042;41.326;19.826;2024-03-07T00:47:46;8.20;99.90
11965;DHT22;6042;41.326;19.826;2024-03-07T00:50:16;8.10;99.90
11965;DHT22;6042;41.326;19.826;2024-03-07T00:52:44;8.20;99.90
11965;DHT22;6042;41.326;19.826;2024-03-07T00:55:13;8.20;99.90
11965;DHT22;6042;41.326;19.826;2024-03-07T00:57:43;8.20;99.90
11965;DHT22;6042;41.326;19.826;2024-03-07T01:00:13;8.30;99.90
11965;DHT22;6042;41.326;19.826;2024-03-07T01:02:42;8.20;99.90
11965;DHT22;6042;41.326;19.826;2024-03-07T01:05:11;8.20;99.90
11965;DHT22;6042;41.326;19.826;2024-03-07T01:07:41;8.30;99.90
11965;DHT22;6042;41.326;19.826;2024-03-07T01:10:12;8.20;99.90
11965;DHT22;6042;41.326;19.826;2024-03-07T01:12:40;8.20;99.90
11965;DHT22;6042;41.326;19.826;2024-03-07T01:15:12;8.30;99.90
11965;DHT22;6042;41.326;19.826;2024-03-07T01:17:42;8.20;99.90
11965;DHT22;6042;41.326;19.826;2024-03-07T01:20:12;8.10;99.90
11965;DHT22;6042;41.326;19.826;2024-03-07T01:22:41;8.20;99.90
11965;DHT22;6042;41.326;19.826;2024-03-07T01:25:09;8.20;99.90
11965;DHT22;6042;41.326;19.826;2024-03-07T01:27:40;8.20;99.90
11965;DHT22;6042;41.326;19.826;2024-03-07T01:30:13;8.10;99.90
11965;DHT22;6042;41.326;19.826;2024-03-07T01:32:43;8.10;99.90
11965;DHT22;6042;41.326;19.826;2024-03-07T01:35:12;8.10;99.90
11965;DHT22;6042;41.326;19.826;2024-03-07T01:37:41;7.90;99.90
11965;DHT22;6042;41.326;19.826;2024-03-07T01:40:10;7.90;99.90
11965;DHT22;6042;41.326;19.826;2024-03-07T01:42:39;8.10;99.90
11965;DHT22;6042;41.326;19.826;2024-03-07T01:45:08;8.00;99.90
11965;DHT22;6042;41.326;19.826;2024-03-07T01:47:38;8.00;99.90
11965;DHT22;6042;41.326;19.826;2024-03-07T01:50:08;8.20;99.90
11965;DHT22;6042;41.326;19.826;2024-03-07T01:52:39;8.20;99.90
11965;DHT22;6042;41.326;19.826;2024-03-07T01:55:08;8.10;99.90
11965;DHT22;6042;41.326;19.826;2024-03-07T01:57:41;8.10;99.90
11965;DHT22;6042;41.326;19.826;2024-03-07T02:00:11;8.20;99.90
11965;DHT22;6042;41.326;19.826;2024-03-07T02:02:41;8.20;99.90
11965;DHT22;6042;41.326;19.826;2024-03-07T02:05:10;8.20;99.90
11965;DHT22;6042;41.326;19.826;2024-03-07T02:07:40;8.20;99.90
11965;DHT22;6042;41.326;19.826;2024-03-07T02:10:09;8.10;99.90
11965;DHT22;6042;41.326;19.826;2024-03-07T02:12:38;8.20;99.90
11965;DHT22;6042;41.326;19.826;2024-03-07T02:15:07;8.20;99.90
11965;DHT22;6042;41.326;19.826;2024-03-07T02:17:37;8.00;99.90
11965;DHT22;6042;41.326;19.826;2024-03-07T02:20:08;8.10;99.90
11965;DHT22;6042;41.326;19.826;2024-03-07T02:22:40;8.20;99.90
11965;DHT22;6042;41.326;19.826;2024-03-07T02:25:09;8.00;99.90
11965;DHT22;6042;41.326;19.826;2024-03-07T02:27:38;8.10;99.90
11965;DHT22;6042;41.326;19.826;2024-03-07T02:30:07;8.20;99.90
11965;DHT22;6042;41.326;19.826;2024-03-07T02:32:36;8.00;99.90
11965;DHT22;6042;41.326;19.826;2024-03-07T02:35:06;8.10;99.90
11965;DHT22;6042;41.326;19.826;2024-03-07T02:37:35;8.20;99.90
11965;DHT22;6042;41.326;19.826;2024-03-07T02:40:07;8.00;99.90
11965;DHT22;6042;41.326;19.826;2024-03-07T02:42:36;8.10;99.90
11965;DHT22;6042;41.326;19.826;2024-03-07T02:45:05;8.20;99.90
11965;DHT22;6042;41.326;19.826;2024-03-07T02:47:34;8.00;99.90
11965;DHT22;6042;41.326;19.826;2024-03-07T02:50:04;8.10;99.90
11965;DHT22;6042;41.326;19.826;2024-03-07T02:52:33;8.10;99.90
11965;DHT22;6042;41.326;19.826;2024-03-07T02:55:02;8.10;99.90
11965;DHT22;6042;41.326;19.826;2024-03-07T02:57:34;8.20;99.90
11965;DHT22;6042;41.326;19.826;2024-03-07T03:00:03;8.20;99.90
11965;DHT22;6042;41.326;19.826;2024-03-07T03:02:40;8.10;99.90
11965;DHT22;6042;41.326;19.826;2024-03-07T03:05:09;8.10;99.90
11965;DHT22;6042;41.326;19.826;2024-03-07T03:07:41;8.20;99.90
11965;DHT22;6042;41.326;19.826;2024-03-07T03:10:12;8.10;99.90
11965;DHT22;6042;41.326;19.826;2024-03-07T03:12:44;8.10;99.90
11965;DHT22;6042;41.326;19.826;2024-03-07T03:15:14;8.20;99.90
11965;DHT22;6042;41.326;19.826;2024-03-07T03:17:42;8.00;99.90
11965;DHT22;6042;41.326;19.826;2024-03-07T03:27:37;8.20;99.90
11965;DHT22;6042;41.326;19.826;2024-03-07T03:36:23;8.20;99.90
11965;DHT22;6042;41.326;19.826;2024-03-07T03:38:53;8.20;99.90
11965;DHT22;6042;41.326;19.826;2024-03-07T03:41:21;8.20;99.90
11965;DHT22;6042;41.326;19.826;2024-03-07T03:43:50;8.20;99.90
11965;DHT22;6042;41.326;19.826;2024-03-07T03:46:18;8.10;99.90
11965;DHT22;6042;41.326;19.826;2024-03-07T03:48:47;8.20;99.90
11965;DHT22;6042;41.326;19.826;2024-03-07T03:51:15;8.10;99.90
11965;DHT22;6042;41.326;19.826;2024-03-07T03:53:45;8.10;99.90
11965;DHT22;6042;41.326;19.826;2024-03-07T03:56:14;8.10;99.90
11965;DHT22;6042;41.326;19.826;2024-03-07T03:58:43;8.00;99.90
11965;DHT22;6042;41.326;19.826;2024-03-07T04:01:11;8.00;99.90
11965;DHT22;6042;41.326;19.826;2024-03-07T04:03:42;8.10;99.90
11965;DHT22;6042;41.326;19.826;2024-03-07T04:06:14;8.10;99.90
11965;DHT22;6042;41.326;19.826;2024-03-07T04:08:42;8.10;99.90
11965;DHT22;6042;41.326;19.826;2024-03-07T04:11:12;8.10;99.90
11965;DHT22;6042;41.326;19.826;2024-03-07T04:13:41;8.20;99.90
11965;DHT22;6042;41.326;19.826;2024-03-07T04:16:09;8.20;99.90
11965;DHT22;6042;41.326;19.826;2024-03-07T04:18:38;8.30;99.90
11965;DHT22;6042;41.326;19.826;2024-03-07T04:21:06;8.30;99.90
11965;DHT22;6042;41.326;19.826;2024-03-07T04:23:36;8.30;99.90
11965;DHT22;6042;41.326;19.826;2024-03-07T04:26:08;8.40;99.90
11965;DHT22;6042;41.326;19.826;2024-03-07T04:28:38;8.40;99.90
11965;DHT22;6042;41.326;19.826;2024-03-07T04:31:06;8.40;99.90
11965;DHT22;6042;41.326;19.826;2024-03-07T04:33:35;8.50;99.90
11965;DHT22;6042;41.326;19.826;2024-03-07T04:36:04;8.40;99.90
11965;DHT22;6042;41.326;19.826;2024-03-07T04:38:34;8.40;99.90
11965;DHT22;6042;41.326;19.826;2024-03-07T04:41:03;8.50;99.90
11965;DHT22;6042;41.326;19.826;2024-03-07T04:43:32;8.40;99.90
11965;DHT22;6042;41.326;19.826;2024-03-07T04:46:02;8.40;99.90
11965;DHT22;6042;41.326;19.826;2024-03-07T04:48:33;8.50;99.90
11965;DHT22;6042;41.326;19.826;2024-03-07T04:51:02;8.40;99.90
11965;DHT22;6042;41.326;19.826;2024-03-07T04:53:31;8.40;99.90
11965;DHT22;6042;41.326;19.826;2024-03-07T04:56:00;8.50;99.90
11965;DHT22;6042;41.326;19.826;2024-03-07T04:58:28;8.40;99.90
11965;DHT22;6042;41.326;19.826;2024-03-07T05:00:57;8.40;99.90
11965;DHT22;6042;41.326;19.826;2024-03-07T05:03:27;8.40;99.90
11965;DHT22;6042;41.326;19.826;2024-03-07T05:05:55;8.40;99.90
11965;DHT22;6042;41.326;19.826;2024-03-07T05:08:24;8.30;99.90
11965;DHT22;6042;41.326;19.826;2024-03-07T05:10:53;8.40;99.90
11965;DHT22;6042;41.326;19.826;2024-03-07T05:13:22;8.40;99.90
11965;DHT22;6042;41.326;19.826;2024-03-07T05:15:51;8.40;99.90
11965;DHT22;6042;41.326;19.826;2024-03-07T05:18:20;8.50;99.90
11965;DHT22;6042;41.326;19.826;2024-03-07T05:20:50;8.60;99.90
11965;DHT22;6042;41.326;19.826;2024-03-07T05:23:19;8.50;99.90
11965;DHT22;6042;41.326;19.826;2024-03-07T05:25:48;8.60;99.90
11965;DHT22;6042;41.326;19.826;2024-03-07T05:28:17;8.70;99.90
11965;DHT22;6042;41.326;19.826;2024-03-07T05:30:46;8.60;99.90
11965;DHT22;6042;41.326;19.826;2024-03-07T05:33:15;8.70;99.90
11965;DHT22;6042;41.326;19.826;2024-03-07T05:35:45;8.80;99.90
11965;DHT22;6042;41.326;19.826;2024-03-07T05:38:15;8.70;99.90
11965;DHT22;6042;41.326;19.826;2024-03-07T05:40:45;8.80;99.90
11965;DHT22;6042;41.326;19.826;2024-03-07T05:43:15;8.80;99.90
11965;DHT22;6042;41.326;19.826;2024-03-07T05:45:44;8.70;99.90
11965;DHT22;6042;41.326;19.826;2024-03-07T05:48:14;8.70;99.90
11965;DHT22;6042;41.326;19.826;2024-03-07T05:50:45;8.80;99.90
11965;DHT22;6042;41.326;19.826;2024-03-07T05:53:15;8.70;99.90
11965;DHT22;6042;41.326;19.826;2024-03-07T05:55:45;8.80;99.90
11965;DHT22;6042;41.326;19.826;2024-03-07T05:58:14;8.90;99.90
11965;DHT22;6042;41.326;19.826;2024-03-07T06:00:43;8.90;99.90
11965;DHT22;6042;41.326;19.826;2024-03-07T06:03:16;9.00;99.90
11965;DHT22;6042;41.326;19.826;2024-03-07T06:05:46;9.10;99.90
11965;DHT22;6042;41.326;19.826;2024-03-07T06:08:20;9.00;99.90
11965;DHT22;6042;41.326;19.826;2024-03-07T06:10:49;9.00;99.90
11965;DHT22;6042;41.326;19.826;2024-03-07T06:13:18;9.20;99.90
11965;DHT22;6042;41.326;19.826;2024-03-07T06:15:48;9.10;99.90
11965;DHT22;6042;41.326;19.826;2024-03-07T06:18:16;9.30;99.90
11965;DHT22;6042;41.326;19.826;2024-03-07T06:20:45;9.40;99.90
11965;DHT22;6042;41.326;19.826;2024-03-07T06:23:16;9.40;99.90
11965;DHT22;6042;41.326;19.826;2024-03-07T06:25:45;9.50;99.90
11965;DHT22;6042;41.326;19.826;2024-03-07T06:28:19;9.60;99.90
11965;DHT22;6042;41.326;19.826;2024-03-07T06:30:47;9.60;99.90
11965;DHT22;6042;41.326;19.826;2024-03-07T06:33:16;9.80;99.90
11965;DHT22;6042;41.326;19.826;2024-03-07T06:35:49;9.90;99.90
11965;DHT22;6042;41.326;19.826;2024-03-07T06:38:20;10.00;99.90
11965;DHT22;6042;41.326;19.826;2024-03-07T06:40:49;10.20;99.90
11965;DHT22;6042;41.326;19.826;2024-03-07T06:43:17;10.40;99.90
11965;DHT22;6042;41.326;19.826;2024-03-07T06:45:45;10.50;99.90
11965;DHT22;6042;41.326;19.826;2024-03-07T06:48:14;10.60;99.90
11965;DHT22;6042;41.326;19.826;2024-03-07T06:50:42;10.60;99.90
11965;DHT22;6042;41.326;19.826;2024-03-07T06:53:12;10.60;99.90
11965;DHT22;6042;41.326;19.826;2024-03-07T06:55:42;10.80;99.90
11965;DHT22;6042;41.326;19.826;2024-03-07T06:58:11;10.80;99.90
11965;DHT22;6042;41.326;19.826;2024-03-07T07:00:39;10.80;99.90
11965;DHT22;6042;41.326;19.826;2024-03-07T07:03:08;10.90;99.90
11965;DHT22;6042;41.326;19.826;2024-03-07T07:05:37;10.80;99.90
11965;DHT22;6042;41.326;19.826;2024-03-07T07:08:06;10.90;99.90
11965;DHT22;6042;41.326;19.826;2024-03-07T07:10:35;11.00;99.90
11965;DHT22;6042;41.326;19.826;2024-03-07T07:13:05;11.00;99.90
11965;DHT22;6042;41.326;19.826;2024-03-07T07:15:34;11.10;99.90
11965;DHT22;6042;41.326;19.826;2024-03-07T07:18:04;11.30;99.90
11965;DHT22;6042;41.326;19.826;2024-03-07T07:20:35;11.40;99.90
11965;DHT22;6042;41.326;19.826;2024-03-07T07:23:04;11.50;99.90
11965;DHT22;6042;41.326;19.826;2024-03-07T07:25:33;11.70;99.90
11965;DHT22;6042;41.326;19.826;2024-03-07T07:28:06;11.70;99.90
11965;DHT22;6042;41.326;19.826;2024-03-07T07:30:35;11.80;99.90
11965;DHT22;6042;41.326;19.826;2024-03-07T07:33:04;11.80;99.90
11965;DHT22;6042;41.326;19.826;2024-03-07T07:35:32;11.90;99.90
11965;DHT22;6042;41.326;19.826;2024-03-07T07:38:02;12.00;99.90
11965;DHT22;6042;41.326;19.826;2024-03-07T07:40:30;12.00;99.90
11965;DHT22;6042;41.326;19.826;2024-03-07T07:43:00;12.20;99.90
11965;DHT22;6042;41.326;19.826;2024-03-07T07:45:32;12.30;99.90
11965;DHT22;6042;41.326;19.826;2024-03-07T07:48:04;12.30;99.90
11965;DHT22;6042;41.326;19.826;2024-03-07T07:50:33;12.40;99.90
11965;DHT22;6042;41.326;19.826;2024-03-07T07:53:02;12.40;99.90
11965;DHT22;6042;41.326;19.826;2024-03-07T07:55:35;12.50;99.90
11965;DHT22;6042;41.326;19.826;2024-03-07T07:58:04;12.70;99.90
11965;DHT22;6042;41.326;19.826;2024-03-07T08:00:34;12.70;99.90
11965;DHT22;6042;41.326;19.826;2024-03-07T08:03:05;12.80;99.90
11965;DHT22;6042;41.326;19.826;2024-03-07T08:05:35;12.90;99.90
11965;DHT22;6042;41.326;19.826;2024-03-07T08:08:05;12.90;99.90
11965;DHT22;6042;41.326;19.826;2024-03-07T08:10:36;12.80;99.90
11965;DHT22;6042;41.326;19.826;2024-03-07T08:13:05;12.80;99.90
11965;DHT22;6042;41.326;19.826;2024-03-07T08:15:37;12.90;99.90
11965;DHT22;6042;41.326;19.826;2024-03-07T08:18:05;13.10;99.90
11965;DHT22;6042;41.326;19.826;2024-03-07T08:20:37;13.20;99.90
11965;DHT22;6042;41.326;19.826;2024-03-07T08:23:08;13.20;99.90
11965;DHT22;6042;41.326;19.826;2024-03-07T08:25:38;13.20;99.90
11965;DHT22;6042;41.326;19.826;2024-03-07T08:28:09;13.20;99.90
11965;DHT22;6042;41.326;19.826;2024-03-07T08:30:39;13.20;99.90
11965;DHT22;6042;41.326;19.826;2024-03-07T08:33:08;13.20;99.90
11965;DHT22;6042;41.326;19.826;2024-03-07T08:35:37;13.30;99.90
11965;DHT22;6042;41.326;19.826;2024-03-07T08:38:06;13.30;99.90
11965;DHT22;6042;41.326;19.826;2024-03-07T08:40:37;13.40;99.90
11965;DHT22;6042;41.326;19.826;2024-03-07T08:43:05;13.60;99.90
11965;DHT22;6042;41.326;19.826;2024-03-07T08:45:49;13.30;99.90
11965;DHT22;6042;41.326;19.826;2024-03-07T08:48:20;13.30;99.90
11965;DHT22;6042;41.326;19.826;2024-03-07T08:50:49;13.10;99.90
11965;DHT22;6042;41.326;19.826;2024-03-07T08:53:18;13.10;99.90
11965;DHT22;6042;41.326;19.826;2024-03-07T08:55:47;13.00;99.90
11965;DHT22;6042;41.326;19.826;2024-03-07T08:58:15;12.80;99.90
11965;DHT22;6042;41.326;19.826;2024-03-07T09:00:44;13.00;99.90
11965;DHT22;6042;41.326;19.826;2024-03-07T09:03:15;13.00;99.90
11965;DHT22;6042;41.326;19.826;2024-03-07T09:05:46;12.90;99.90
11965;DHT22;6042;41.326;19.826;2024-03-07T09:08:15;13.00;99.90
11965;DHT22;6042;41.326;19.826;2024-03-07T09:10:45;12.90;99.90
11965;DHT22;6042;41.326;19.826;2024-03-07T09:13:16;12.90;99.90
11965;DHT22;6042;41.326;19.826;2024-03-07T09:15:45;12.90;99.90
11965;DHT22;6042;41.326;19.826;2024-03-07T09:18:15;12.80;99.90
11965;DHT22;6042;41.326;19.826;2024-03-07T09:20:44;13.00;99.90
11965;DHT22;6042;41.326;19.826;2024-03-07T09:23:13;13.30;99.90
11965;DHT22;6042;41.326;19.826;2024-03-07T09:25:42;13.30;99.90
11965;DHT22;6042;41.326;19.826;2024-03-07T09:28:10;13.40;99.90
11965;DHT22;6042;41.326;19.826;2024-03-07T09:30:39;13.70;99.90
11965;DHT22;6042;41.326;19.826;2024-03-07T09:33:07;13.70;99.90
11965;DHT22;6042;41.326;19.826;2024-03-07T09:35:41;13.80;99.90
11965;DHT22;6042;41.326;19.826;2024-03-07T09:38:09;14.00;99.90
11965;DHT22;6042;41.326;19.826;2024-03-07T09:40:39;14.20;99.90
11965;DHT22;6042;41.326;19.826;2024-03-07T09:43:07;14.40;99.90
11965;DHT22;6042;41.326;19.826;2024-03-07T09:45:38;14.30;99.90
11965;DHT22;6042;41.326;19.826;2024-03-07T09:48:14;14.00;99.90
11965;DHT22;6042;41.326;19.826;2024-03-07T09:50:46;13.90;99.90
11965;DHT22;6042;41.326;19.826;2024-03-07T09:53:21;13.80;99.90
11965;DHT22;6042;41.326;19.826;2024-03-07T09:55:52;13.70;99.90
11965;DHT22;6042;41.326;19.826;2024-03-07T09:58:22;13.70;99.90
11965;DHT22;6042;41.326;19.826;2024-03-07T10:00:53;13.60;99.90
11965;DHT22;6042;41.326;19.826;2024-03-07T10:03:28;13.60;99.90
11965;DHT22;6042;41.326;19.826;2024-03-07T10:06:00;13.60;99.90
11965;DHT22;6042;41.326;19.826;2024-03-07T10:08:30;13.50;99.90
11965;DHT22;6042;41.326;19.826;2024-03-07T10:10:59;13.40;99.90
11965;DHT22;6042;41.326;19.826;2024-03-07T10:13:28;13.10;99.90
11965;DHT22;6042;41.326;19.826;2024-03-07T10:15:57;12.70;99.90
11965;DHT22;6042;41.326;19.826;2024-03-07T10:18:27;12.50;99.90
11965;DHT22;6042;41.326;19.826;2024-03-07T10:20:57;12.10;99.90
11965;DHT22;6042;41.326;19.826;2024-03-07T10:23:29;11.90;99.90
11965;DHT22;6042;41.326;19.826;2024-03-07T10:25:58;11.90;99.90
11965;DHT22;6042;41.326;19.826;2024-03-07T10:28:27;11.60;99.90
11965;DHT22;6042;41.326;19.826;2024-03-07T10:30:55;11.50;99.90
11965;DHT22;6042;41.326;19.826;2024-03-07T10:33:27;11.50;99.90
11965;DHT22;6042;41.326;19.826;2024-03-07T10:35:56;11.30;99.90
11965;DHT22;6042;41.326;19.826;2024-03-07T10:38:24;11.00;99.90
11965;DHT22;6042;41.326;19.826;2024-03-07T10:40:55;10.70;99.90
11965;DHT22;6042;41.326;19.826;2024-03-07T10:43:26;10.70;99.90
11965;DHT22;6042;41.326;19.826;2024-03-07T10:46:00;10.70;99.90
11965;DHT22;6042;41.326;19.826;2024-03-07T10:48:38;10.80;99.90
11965;DHT22;6042;41.326;19.826;2024-03-07T10:51:14;10.90;99.90
11965;DHT22;6042;41.326;19.826;2024-03-07T10:53:56;11.30;99.90
11965;DHT22;6042;41.326;19.826;2024-03-07T10:56:50;11.80;99.90
11965;DHT22;6042;41.326;19.826;2024-03-07T10:59:22;12.50;99.90
11965;DHT22;6042;41.326;19.826;2024-03-07T11:02:03;12.80;99.90
11965;DHT22;6042;41.326;19.826;2024-03-07T11:04:34;13.20;99.90
11965;DHT22;6042;41.326;19.826;2024-03-07T11:07:03;13.30;99.90
11965;DHT22;6042;41.326;19.826;2024-03-07T11:09:33;13.20;99.90
11965;DHT22;6042;41.326;19.826;2024-03-07T11:12:07;13.50;99.90
11965;DHT22;6042;41.326;19.826;2024-03-07T11:14:38;13.60;99.90
11965;DHT22;6042;41.326;19.826;2024-03-07T11:17:09;13.40;99.90
11965;DHT22;6042;41.326;19.826;2024-03-07T11:19:42;13.40;99.90
11965;DHT22;6042;41.326;19.826;2024-03-07T11:22:28;13.20;99.90
11965;DHT22;6042;41.326;19.826;2024-03-07T11:25:03;13.10;99.90
11965;DHT22;6042;41.326;19.826;2024-03-07T11:27:38;12.90;99.90
11965;DHT22;6042;41.326;19.826;2024-03-07T11:30:10;12.80;99.90
11965;DHT22;6042;41.326;19.826;2024-03-07T11:32:40;12.60;99.90
11965;DHT22;6042;41.326;19.826;2024-03-07T11:35:12;12.60;99.90
11965;DHT22;6042;41.326;19.826;2024-03-07T11:37:43;12.70;99.90
11965;DHT22;6042;41.326;19.826;2024-03-07T11:40:43;12.80;99.90
11965;DHT22;6042;41.326;19.826;2024-03-07T11:43:14;12.60;99.90
11965;DHT22;6042;41.326;19.826;2024-03-07T11:45:43;12.50;99.90
11965;DHT22;6042;41.326;19.826;2024-03-07T11:48:20;12.70;99.90
11965;DHT22;6042;41.326;19.826;2024-03-07T11:50:49;12.70;99.90
11965;DHT22;6042;41.326;19.826;2024-03-07T11:53:19;12.90;99.90
11965;DHT22;6042;41.326;19.826;2024-03-07T11:55:49;12.70;99.90
11965;DHT22;6042;41.326;19.826;2024-03-07T11:58:22;12.80;99.90
11965;DHT22;6042;41.326;19.826;2024-03-07T12:00:51;13.00;99.90
11965;DHT22;6042;41.326;19.826;2024-03-07T12:03:21;13.20;99.90
11965;DHT22;6042;41.326;19.826;2024-03-07T12:05:53;13.60;99.90
11965;DHT22;6042;41.326;19.826;2024-03-07T12:08:26;13.90;99.90
11965;DHT22;6042;41.326;19.826;2024-03-07T12:10:55;14.40;99.90
11965;DHT22;6042;41.326;19.826;2024-03-07T12:13:27;14.70;99.90
11965;DHT22;6042;41.326;19.826;2024-03-07T12:15:57;14.90;99.90
11965;DHT22;6042;41.326;19.826;2024-03-07T12:18:27;14.80;99.90
11965;DHT22;6042;41.326;19.826;2024-03-07T12:20:56;14.70;99.90
11965;DHT22;6042;41.326;19.826;2024-03-07T12:23:26;14.40;99.90
11965;DHT22;6042;41.326;19.826;2024-03-07T12:26:02;14.60;99.90
11965;DHT22;6042;41.326;19.826;2024-03-07T12:28:35;15.00;99.60
11965;DHT22;6042;41.326;19.826;2024-03-07T12:31:07;15.00;98.50
11965;DHT22;6042;41.326;19.826;2024-03-07T12:33:43;14.90;97.80
11965;DHT22;6042;41.326;19.826;2024-03-07T12:36:19;14.80;97.90
11965;DHT22;6042;41.326;19.826;2024-03-07T12:38:53;14.60;97.50
11965;DHT22;6042;41.326;19.826;2024-03-07T12:41:24;14.60;97.60
11965;DHT22;6042;41.326;19.826;2024-03-07T12:43:54;14.80;97.20
11965;DHT22;6042;41.326;19.826;2024-03-07T12:46:28;15.20;97.20
11965;DHT22;6042;41.326;19.826;2024-03-07T12:48:59;15.50;96.70
11965;DHT22;6042;41.326;19.826;2024-03-07T12:51:28;15.30;94.70
11965;DHT22;6042;41.326;19.826;2024-03-07T12:53:56;14.90;93.80
11965;DHT22;6042;41.326;19.826;2024-03-07T12:56:25;14.40;94.00
11965;DHT22;6042;41.326;19.826;2024-03-07T12:58:55;14.70;94.60
11965;DHT22;6042;41.326;19.826;2024-03-07T13:01:27;14.90;94.90
11965;DHT22;6042;41.326;19.826;2024-03-07T13:03:56;15.20;94.90
11965;DHT22;6042;41.326;19.826;2024-03-07T13:06:27;15.40;95.60
11965;DHT22;6042;41.326;19.826;2024-03-07T13:08:57;15.50;95.20
11965;DHT22;6042;41.326;19.826;2024-03-07T13:11:25;15.20;94.10
11965;DHT22;6042;41.326;19.826;2024-03-07T13:13:59;15.30;94.30
11965;DHT22;6042;41.326;19.826;2024-03-07T13:16:29;15.60;93.20
11965;DHT22;6042;41.326;19.826;2024-03-07T13:19:00;15.90;92.80
11965;DHT22;6042;41.326;19.826;2024-03-07T13:21:32;15.80;93.20
11965;DHT22;6042;41.326;19.826;2024-03-07T13:24:04;15.70;93.10
11965;DHT22;6042;41.326;19.826;2024-03-07T13:26:35;15.80;92.80
11965;DHT22;6042;41.326;19.826;2024-03-07T13:29:06;15.80;92.90
11965;DHT22;6042;41.326;19.826;2024-03-07T13:31:34;15.70;92.70
11965;DHT22;6042;41.326;19.826;2024-03-07T13:34:03;15.40;92.20
11965;DHT22;6042;41.326;19.826;2024-03-07T13:36:31;15.00;92.40
11965;DHT22;6042;41.326;19.826;2024-03-07T13:39:00;14.90;93.30
11965;DHT22;6042;41.326;19.826;2024-03-07T13:41:31;15.20;93.10
11965;DHT22;6042;41.326;19.826;2024-03-07T13:43:59;15.60;92.20
11965;DHT22;6042;41.326;19.826;2024-03-07T13:46:29;15.60;92.40
11965;DHT22;6042;41.326;19.826;2024-03-07T13:49:00;15.50;93.20
11965;DHT22;6042;41.326;19.826;2024-03-07T13:51:35;15.40;92.30
11965;DHT22;6042;41.326;19.826;2024-03-07T13:54:04;15.50;92.90
11965;DHT22;6042;41.326;19.826;2024-03-07T13:57:14;15.60;93.20
11965;DHT22;6042;41.326;19.826;2024-03-07T14:00:02;15.50;93.20
11965;DHT22;6042;41.326;19.826;2024-03-07T14:03:30;15.20;92.80
11965;DHT22;6042;41.326;19.826;2024-03-07T14:06:06;14.70;94.50
11965;DHT22;6042;41.326;19.826;2024-03-07T14:09:13;14.60;94.80
11965;DHT22;6042;41.326;19.826;2024-03-07T14:12:05;15.00;94.10
11965;DHT22;6042;41.326;19.826;2024-03-07T14:18:24;16.00;92.60
11965;DHT22;6042;41.326;19.826;2024-03-07T14:27:27;15.10;93.30
11965;DHT22;6042;41.326;19.826;2024-03-07T14:30:19;14.60;94.20
11965;DHT22;6042;41.326;19.826;2024-03-07T14:32:51;14.60;94.20
11965;DHT22;6042;41.326;19.826;2024-03-07T14:35:28;14.70;94.30
11965;DHT22;6042;41.326;19.826;2024-03-07T14:38:06;14.90;94.40
11965;DHT22;6042;41.326;19.826;2024-03-07T14:40:34;14.50;94.90
11965;DHT22;6042;41.326;19.826;2024-03-07T14:43:04;14.40;94.50
11965;DHT22;6042;41.326;19.826;2024-03-07T14:45:36;14.20;94.90
11965;DHT22;6042;41.326;19.826;2024-03-07T14:48:07;14.20;95.30
11965;DHT22;6042;41.326;19.826;2024-03-07T14:50:41;14.30;95.80
11965;DHT22;6042;41.326;19.826;2024-03-07T14:53:14;14.50;96.00
11965;DHT22;6042;41.326;19.826;2024-03-07T14:55:45;14.50;96.20
11965;DHT22;6042;41.326;19.826;2024-03-07T14:58:14;14.60;95.60
11965;DHT22;6042;41.326;19.826;2024-03-07T15:00:44;14.40;95.90
11965;DHT22;6042;41.326;19.826;2024-03-07T15:03:25;14.30;96.00
11965;DHT22;6042;41.326;19.826;2024-03-07T15:05:58;14.40;95.50
11965;DHT22;6042;41.326;19.826;2024-03-07T15:08:30;14.10;95.80
11965;DHT22;6042;41.326;19.826;2024-03-07T15:13:48;14.20;95.40
11965;DHT22;6042;41.326;19.826;2024-03-07T15:16:16;14.30;96.20
11965;DHT22;6042;41.326;19.826;2024-03-07T15:19:01;14.40;96.00
11965;DHT22;6042;41.326;19.826;2024-03-07T15:21:31;14.30;95.40
11965;DHT22;6042;41.326;19.826;2024-03-07T15:24:00;14.10;95.40
11965;DHT22;6042;41.326;19.826;2024-03-07T15:26:33;14.00;95.90
11965;DHT22;6042;41.326;19.826;2024-03-07T15:29:02;13.80;96.50
11965;DHT22;6042;41.326;19.826;2024-03-07T15:31:32;13.80;97.10
11965;DHT22;6042;41.326;19.826;2024-03-07T15:34:01;13.50;97.90
11965;DHT22;6042;41.326;19.826;2024-03-07T15:36:31;13.40;97.90
11965;DHT22;6042;41.326;19.826;2024-03-07T15:39:00;13.40;98.20
11965;DHT22;6042;41.326;19.826;2024-03-07T15:41:42;13.10;98.60
11965;DHT22;6042;41.326;19.826;2024-03-07T15:44:11;13.10;98.80
11965;DHT22;6042;41.326;19.826;2024-03-07T15:46:40;13.10;98.60
11965;DHT22;6042;41.326;19.826;2024-03-07T15:49:08;13.00;98.60
11965;DHT22;6042;41.326;19.826;2024-03-07T15:51:38;13.00;98.70
11965;DHT22;6042;41.326;19.826;2024-03-07T15:54:09;13.00;99.00
11965;DHT22;6042;41.326;19.826;2024-03-07T15:56:38;13.00;99.00
11965;DHT22;6042;41.326;19.826;2024-03-07T15:59:07;13.00;99.90
11965;DHT22;6042;41.326;19.826;2024-03-07T16:01:36;12.90;99.90
11965;DHT22;6042;41.326;19.826;2024-03-07T16:04:04;12.70;99.90
11965;DHT22;6042;41.326;19.826;2024-03-07T16:06:34;12.50;99.90
11965;DHT22;6042;41.326;19.826;2024-03-07T16:09:05;12.20;99.90
11965;DHT22;6042;41.326;19.826;2024-03-07T16:11:34;12.00;99.90
11965;DHT22;6042;41.326;19.826;2024-03-07T16:14:02;11.90;99.90
11965;DHT22;6042;41.326;19.826;2024-03-07T16:16:32;11.60;99.90
11965;DHT22;6042;41.326;19.826;2024-03-07T16:19:00;11.70;99.90
11965;DHT22;6042;41.326;19.826;2024-03-07T16:21:32;11.60;99.90
11965;DHT22;6042;41.326;19.826;2024-03-07T16:24:01;11.50;99.90
11965;DHT22;6042;41.326;19.826;2024-03-07T16:26:34;11.70;99.90